createdAt,value
2019-01-30T00:02:05.448Z,8.60
2019-01-30T00:04:34.068Z,8.93
2019-01-30T00:07:02.849Z,9.10
2019-01-30T00:09:31.114Z,9.17
2019-01-30T00:11:59.546Z,8.97
2019-01-30T00:14:28.031Z,9.40
2019-01-30T00:16:56.714Z,8.73
2019-01-30T00:19:25.341Z,9.00
2019-01-30T00:21:53.931Z,8.63
2019-01-30T00:24:22.529Z,8.87
2019-01-30T00:26:50.807Z,8.90
2019-01-30T00:29:19.320Z,8.70
2019-01-30T00:31:47.587Z,8.60
2019-01-30T00:34:16.332Z,8.60
2019-01-30T00:36:44.840Z,8.57
2019-01-30T00:39:13.466Z,8.73
2019-01-30T00:41:42.002Z,8.33
2019-01-30T00:44:10.697Z,8.83
2019-01-30T00:46:39.358Z,9.37
2019-01-30T00:49:07.894Z,8.93
2019-01-30T00:51:36.440Z,10.03
2019-01-30T00:54:05.044Z,9.83
2019-01-30T00:56:33.539Z,9.80
2019-01-30T00:59:02.206Z,9.20
2019-01-30T01:01:30.749Z,8.80
2019-01-30T01:03:59.439Z,9.07
2019-01-30T01:06:27.861Z,9.03
2019-01-30T01:08:56.365Z,8.97
2019-01-30T01:11:24.969Z,8.77
2019-01-30T01:13:53.644Z,8.87
2019-01-30T01:16:21.925Z,9.20
2019-01-30T01:18:50.343Z,9.23
2019-01-30T01:21:18.873Z,9.77
2019-01-30T01:23:47.452Z,9.50
2019-01-30T01:26:15.805Z,9.47
2019-01-30T01:28:44.229Z,9.80
2019-01-30T01:31:12.761Z,8.80
2019-01-30T01:33:41.129Z,9.47
2019-01-30T01:36:09.816Z,9.20
2019-01-30T01:38:38.424Z,9.40
2019-01-30T01:41:07.060Z,8.90
2019-01-30T01:43:36.300Z,9.30
2019-01-30T01:46:04.974Z,10.07
2019-01-30T01:48:33.298Z,9.17
2019-01-30T01:51:01.860Z,9.83
2019-01-30T01:53:30.609Z,8.87
2019-01-30T01:55:59.282Z,8.93
2019-01-30T01:58:27.866Z,9.30
2019-01-30T02:00:56.315Z,8.97
2019-01-30T02:03:24.821Z,9.93
2019-01-30T02:05:53.402Z,10.07
2019-01-30T02:08:21.794Z,10.00
2019-01-30T02:10:50.361Z,9.47
2019-01-30T02:13:19.178Z,9.70
2019-01-30T02:15:47.962Z,9.13
2019-01-30T02:18:16.606Z,8.80
2019-01-30T02:20:45.283Z,9.33
2019-01-30T02:23:13.627Z,8.60
2019-01-30T02:25:42.402Z,8.43
2019-01-30T02:28:10.614Z,8.33
2019-01-30T02:30:47.106Z,8.13
2019-01-30T02:33:09.828Z,8.43
2019-01-30T02:35:38.824Z,9.37
2019-01-30T02:38:07.645Z,8.83
2019-01-30T02:40:36.564Z,8.67
2019-01-30T02:43:06.024Z,8.40
2019-01-30T02:45:35.386Z,7.97
2019-01-30T02:48:04.424Z,8.23
2019-01-30T02:50:34.990Z,8.47
2019-01-30T02:53:04.072Z,7.97
2019-01-30T02:55:32.810Z,8.27
2019-01-30T02:58:02.309Z,7.93
2019-01-30T03:00:32.176Z,7.73
2019-01-30T03:03:00.844Z,8.17
2019-01-30T03:05:29.963Z,7.50
2019-01-30T03:08:00.132Z,8.17
2019-01-30T03:10:28.902Z,7.90
2019-01-30T03:12:57.350Z,8.13
2019-01-30T03:15:26.385Z,7.27
2019-01-30T03:17:55.119Z,8.20
2019-01-30T03:20:25.201Z,8.10
2019-01-30T03:22:53.621Z,8.00
2019-01-30T03:25:23.124Z,7.73
2019-01-30T03:27:51.721Z,8.13
2019-01-30T03:30:22.650Z,8.20
2019-01-30T03:32:51.280Z,8.33
2019-01-30T03:35:20.028Z,8.27
2019-01-30T03:37:48.596Z,8.77
2019-01-30T03:40:18.238Z,8.30
2019-01-30T03:42:46.961Z,8.27
2019-01-30T03:45:18.128Z,8.40
2019-01-30T03:47:46.708Z,8.00
2019-01-30T03:50:15.587Z,7.13
2019-01-30T03:52:44.294Z,7.53
2019-01-30T03:55:14.410Z,7.33
2019-01-30T03:57:43.230Z,7.60
2019-01-30T04:00:14.978Z,7.10
2019-01-30T04:02:43.549Z,7.53
2019-01-30T04:05:12.349Z,7.40
2019-01-30T04:07:40.866Z,7.20
2019-01-30T04:10:11.909Z,7.50
2019-01-30T04:12:40.534Z,7.60
2019-01-30T04:15:10.563Z,7.87
2019-01-30T04:17:39.305Z,7.20
2019-01-30T04:20:09.427Z,7.47
2019-01-30T04:22:38.163Z,7.50
2019-01-30T04:25:06.945Z,7.57
2019-01-30T04:27:35.804Z,7.90
2019-01-30T04:30:06.994Z,8.03
2019-01-30T04:32:35.634Z,7.90
2019-01-30T04:35:04.874Z,7.43
2019-01-30T04:37:33.396Z,8.17
2019-01-30T04:40:02.164Z,7.57
2019-01-30T04:42:30.754Z,7.20
2019-01-30T04:44:59.210Z,7.67
2019-01-30T04:47:27.875Z,6.97
2019-01-30T04:49:56.169Z,7.27
2019-01-30T04:52:24.568Z,6.87
2019-01-30T04:54:52.832Z,6.93
2019-01-30T04:57:21.102Z,7.62
2019-01-30T04:59:49.423Z,7.97
2019-01-30T05:02:17.940Z,7.13
2019-01-30T05:04:46.623Z,7.10
2019-01-30T05:07:15.888Z,7.17
2019-01-30T05:09:44.502Z,6.37
2019-01-30T05:12:12.985Z,7.70
2019-01-30T05:14:41.293Z,6.73
2019-01-30T05:17:10.156Z,8.90
2019-01-30T05:19:38.639Z,6.73
2019-01-30T05:22:06.998Z,6.60
2019-01-30T05:24:35.521Z,6.50
2019-01-30T05:27:04.563Z,6.90
2019-01-30T05:29:33.074Z,6.70
2019-01-30T05:32:01.871Z,7.67
2019-01-30T05:34:30.307Z,7.37
2019-01-30T05:36:58.709Z,7.33
2019-01-30T05:39:27.153Z,7.73
2019-01-30T05:41:56.800Z,8.40
2019-01-30T05:44:25.332Z,8.10
2019-01-30T05:46:55.046Z,8.67
2019-01-30T05:49:23.447Z,8.20
2019-01-30T05:51:52.171Z,7.47
2019-01-30T05:54:20.789Z,7.53
2019-01-30T05:56:49.578Z,7.87
2019-01-30T05:59:18.067Z,7.47
2019-01-30T06:01:46.350Z,7.83
2019-01-30T06:04:15.064Z,8.13
2019-01-30T06:06:43.804Z,7.33
2019-01-30T06:09:12.585Z,7.30
2019-01-30T06:11:41.058Z,7.17
2019-01-30T06:14:09.777Z,7.27
2019-01-30T06:16:38.215Z,7.27
2019-01-30T06:19:06.845Z,7.43
2019-01-30T06:21:35.215Z,7.80
2019-01-30T06:24:03.610Z,7.87
2019-01-30T06:26:32.067Z,7.93
2019-01-30T06:29:00.612Z,8.33
2019-01-30T06:31:28.987Z,10.50
2019-01-30T06:33:57.585Z,9.80
2019-01-30T06:36:26.302Z,9.30
2019-01-30T06:38:54.884Z,14.23
2019-01-30T06:41:23.373Z,15.73
2019-01-30T06:43:51.962Z,14.37
2019-01-30T06:46:20.597Z,11.97
2019-01-30T06:48:48.942Z,12.03
2019-01-30T06:51:17.580Z,10.57
2019-01-30T06:53:46.229Z,9.80
2019-01-30T06:56:14.690Z,14.47
2019-01-30T06:58:43.134Z,16.87
2019-01-30T07:01:11.825Z,12.27
2019-01-30T07:03:40.194Z,11.90
2019-01-30T07:06:09.701Z,13.07
2019-01-30T07:08:59.249Z,11.23
2019-01-30T07:11:28.029Z,11.40
2019-01-30T07:13:56.923Z,12.27
2019-01-30T07:16:25.393Z,11.87
2019-01-30T07:18:53.785Z,12.27
2019-01-30T07:21:22.368Z,14.30
2019-01-30T07:23:50.856Z,15.90
2019-01-30T07:26:19.401Z,12.20
2019-01-30T07:28:47.751Z,12.83
2019-01-30T07:31:16.109Z,11.17
2019-01-30T07:33:44.720Z,10.80
2019-01-30T07:36:13.239Z,11.00
2019-01-30T07:38:41.583Z,12.10
2019-01-30T07:41:10.375Z,17.23
2019-01-30T07:43:38.741Z,16.97
2019-01-30T07:46:07.378Z,16.43
2019-01-30T07:48:37.046Z,17.77
2019-01-30T07:51:05.681Z,21.20
2019-01-30T07:53:34.174Z,21.73
2019-01-30T07:56:02.895Z,27.10
2019-01-30T07:58:31.384Z,18.10
2019-01-30T08:01:00.097Z,13.07
2019-01-30T08:03:28.651Z,12.13
2019-01-30T08:05:56.990Z,11.03
2019-01-30T08:08:25.587Z,8.43
2019-01-30T08:10:54.335Z,8.03
2019-01-30T08:13:23.034Z,10.10
2019-01-30T08:15:51.662Z,9.17
2019-01-30T08:18:21.060Z,10.30
2019-01-30T08:20:49.668Z,14.70
2019-01-30T08:23:18.299Z,15.73
2019-01-30T08:25:47.076Z,18.33
2019-01-30T08:28:15.924Z,29.45
2019-01-30T08:30:45.202Z,18.83
2019-01-30T08:33:13.939Z,10.47
2019-01-30T08:35:42.673Z,10.80
2019-01-30T08:38:11.517Z,16.05
2019-01-30T08:40:40.331Z,7.40
2019-01-30T08:43:08.759Z,7.33
2019-01-30T08:45:37.240Z,9.25
2019-01-30T08:48:06.961Z,8.63
2019-01-30T08:50:35.654Z,7.10
2019-01-30T08:53:04.164Z,6.10
2019-01-30T08:55:32.824Z,6.27
2019-01-30T08:58:01.430Z,7.60
2019-01-30T09:00:30.417Z,4.80
2019-01-30T09:02:58.952Z,5.97
2019-01-30T09:05:27.679Z,6.17
2019-01-30T09:07:56.381Z,5.40
2019-01-30T09:10:25.696Z,4.83
2019-01-30T09:12:54.320Z,4.77
2019-01-30T09:15:24.013Z,5.80
2019-01-30T09:17:52.788Z,4.13
2019-01-30T09:20:22.589Z,5.03
2019-01-30T09:22:51.214Z,5.33
2019-01-30T09:25:21.729Z,6.87
2019-01-30T09:27:50.510Z,9.03
2019-01-30T09:30:19.965Z,8.80
2019-01-30T09:32:48.585Z,5.77
2019-01-30T09:35:17.326Z,5.43
2019-01-30T09:37:45.923Z,5.63
2019-01-30T09:40:14.707Z,5.70
2019-01-30T09:42:45.571Z,6.07
2019-01-30T09:45:14.922Z,9.50
2019-01-30T09:47:43.645Z,5.80
2019-01-30T09:50:15.073Z,5.90
2019-01-30T09:52:43.963Z,6.23
2019-01-30T09:55:13.313Z,6.27
2019-01-30T09:57:42.009Z,6.50
2019-01-30T10:00:19.632Z,6.03
2019-01-30T10:02:48.323Z,5.30
2019-01-30T10:05:16.966Z,5.70
2019-01-30T10:07:45.703Z,5.07
2019-01-30T10:10:17.497Z,5.97
2019-01-30T10:12:46.199Z,5.50
2019-01-30T10:15:16.369Z,5.10
2019-01-30T10:17:45.876Z,5.73
2019-01-30T10:20:17.011Z,6.20
2019-01-30T10:22:45.616Z,5.77
2019-01-30T10:25:14.224Z,5.97
2019-01-30T10:27:42.607Z,6.40
2019-01-30T10:30:12.319Z,7.00
2019-01-30T10:32:40.914Z,6.60
2019-01-30T10:35:09.828Z,8.90
2019-01-30T10:37:38.250Z,7.73
2019-01-30T10:40:09.532Z,7.35
2019-01-30T10:42:39.264Z,7.57
2019-01-30T10:45:08.514Z,6.90
2019-01-30T10:47:37.193Z,6.73
2019-01-30T10:50:07.249Z,7.40
2019-01-30T10:52:35.933Z,7.73
2019-01-30T10:55:05.690Z,8.27
2019-01-30T10:57:34.420Z,8.27
2019-01-30T11:00:06.133Z,7.60
2019-01-30T11:02:34.863Z,6.63
2019-01-30T11:05:04.392Z,6.60
2019-01-30T11:07:32.856Z,5.40
2019-01-30T11:10:01.359Z,5.87
2019-01-30T11:12:30.024Z,6.60
2019-01-30T11:14:58.662Z,6.90
2019-01-30T11:17:27.267Z,4.90
2019-01-30T11:19:55.741Z,5.10
2019-01-30T11:22:24.241Z,5.90
2019-01-30T11:24:52.894Z,5.85
2019-01-30T11:27:21.337Z,5.60
2019-01-30T11:29:49.870Z,5.07
2019-01-30T11:32:18.376Z,4.77
2019-01-30T11:34:46.837Z,4.93
2019-01-30T11:37:15.413Z,5.50
2019-01-30T11:39:43.823Z,6.43
2019-01-30T11:42:12.447Z,12.13
2019-01-30T11:44:40.965Z,5.70
2019-01-30T11:47:09.886Z,5.67
2019-01-30T11:49:38.499Z,5.30
2019-01-30T11:52:07.181Z,5.80
2019-01-30T11:54:38.877Z,5.57
2019-01-30T11:57:06.312Z,6.93
2019-01-30T11:59:34.907Z,5.67
2019-01-30T12:02:03.750Z,5.43
2019-01-30T12:04:32.390Z,5.60
2019-01-30T12:07:02.128Z,6.10
2019-01-30T12:09:30.689Z,6.17
2019-01-30T12:11:59.464Z,6.13
2019-01-30T12:14:28.050Z,4.87
2019-01-30T12:16:56.332Z,4.93
2019-01-30T12:19:24.899Z,6.10
2019-01-30T12:21:53.562Z,5.97
2019-01-30T12:24:21.968Z,5.40
2019-01-30T12:26:50.713Z,6.87
2019-01-30T12:29:19.334Z,6.00
2019-01-30T12:31:48.065Z,5.63
2019-01-30T12:34:16.679Z,4.93
2019-01-30T12:36:45.180Z,5.43
2019-01-30T12:39:13.671Z,5.33
2019-01-30T12:41:42.373Z,6.10
2019-01-30T12:44:10.984Z,6.10
2019-01-30T12:46:39.709Z,6.90
2019-01-30T12:49:08.135Z,6.40
2019-01-30T12:51:41.859Z,6.77
2019-01-30T12:54:11.481Z,6.67
2019-01-30T12:56:41.267Z,6.27
2019-01-30T12:59:10.137Z,7.13
2019-01-30T13:01:38.824Z,7.37
2019-01-30T13:04:07.503Z,8.00
2019-01-30T13:06:35.928Z,7.93
2019-01-30T13:09:07.958Z,9.50
2019-01-30T13:11:36.429Z,10.37
2019-01-30T13:14:05.242Z,10.20
2019-01-30T13:16:33.923Z,11.00
2019-01-30T13:19:02.659Z,8.73
2019-01-30T13:21:31.076Z,7.63
2019-01-30T13:23:59.966Z,7.50
2019-01-30T13:26:28.762Z,7.67
2019-01-30T13:28:57.685Z,7.50
2019-01-30T13:31:27.572Z,6.60
2019-01-30T13:33:56.920Z,7.90
2019-01-30T13:36:25.638Z,9.13
2019-01-30T13:38:54.047Z,7.73
2019-01-30T13:41:22.696Z,7.73
2019-01-30T13:43:51.342Z,7.37
2019-01-30T13:46:19.931Z,6.57
2019-01-30T13:48:48.326Z,7.70
2019-01-30T13:51:18.898Z,7.50
2019-01-30T13:53:48.321Z,7.47
2019-01-30T13:56:17.461Z,7.13
2019-01-30T13:58:46.523Z,7.37
2019-01-30T14:01:17.625Z,6.97
2019-01-30T14:03:45.480Z,7.37
2019-01-30T14:06:14.029Z,6.60
2019-01-30T14:08:42.678Z,7.03
2019-01-30T14:11:11.322Z,7.23
2019-01-30T14:13:39.773Z,7.27
2019-01-30T14:16:09.395Z,7.03
2019-01-30T14:18:37.967Z,6.83
2019-01-30T14:21:06.524Z,6.60
2019-01-30T14:23:35.054Z,7.03
2019-01-30T14:26:03.777Z,7.20
2019-01-30T14:28:32.456Z,6.50
2019-01-30T14:31:00.996Z,6.90
2019-01-30T14:33:29.479Z,7.17
2019-01-30T14:35:58.134Z,7.03
2019-01-30T14:38:27.834Z,6.87
2019-01-30T14:40:56.527Z,6.87
2019-01-30T14:43:25.157Z,7.03
2019-01-30T14:45:53.751Z,6.23
2019-01-30T14:48:22.556Z,5.97
2019-01-30T14:50:50.878Z,6.70
2019-01-30T14:53:21.442Z,6.70
2019-01-30T14:55:50.110Z,9.87
2019-01-30T14:58:24.911Z,8.47
2019-01-30T15:00:54.768Z,6.87
2019-01-30T15:03:23.503Z,6.93
2019-01-30T15:05:53.066Z,7.23
2019-01-30T15:08:22.943Z,6.47
2019-01-30T15:10:51.707Z,7.03
2019-01-30T15:13:22.402Z,6.93
2019-01-30T15:15:51.449Z,7.07
2019-01-30T15:18:20.047Z,7.33
2019-01-30T15:20:48.874Z,7.47
2019-01-30T15:23:17.396Z,7.77
2019-01-30T15:25:47.252Z,7.80
2019-01-30T15:28:15.834Z,7.50
2019-01-30T15:30:46.671Z,7.73
2019-01-30T15:33:16.442Z,7.73
2019-01-30T15:35:45.083Z,7.73
2019-01-30T15:38:16.599Z,8.40
2019-01-30T15:40:45.529Z,8.80
2019-01-30T15:43:53.661Z,8.30
2019-01-30T15:47:02.764Z,7.80
2019-01-30T15:50:39.840Z,7.83
2019-01-30T15:53:56.922Z,8.90
2019-01-30T15:57:16.069Z,8.90
2019-01-30T16:00:49.539Z,9.60
2019-01-30T16:04:17.504Z,9.57
2019-01-30T16:07:57.262Z,9.50
2019-01-30T16:11:55.887Z,9.53
2019-01-30T16:15:25.882Z,9.70
2019-01-30T16:19:06.752Z,9.27
2019-01-30T16:22:38.182Z,9.00
2019-01-30T16:26:20.161Z,9.93
2019-01-30T16:30:05.230Z,15.83
2019-01-30T16:33:46.589Z,22.07
2019-01-30T16:36:59.037Z,19.33
2019-01-30T16:40:34.633Z,17.37
2019-01-30T16:44:06.699Z,16.53
2019-01-30T16:47:16.296Z,15.53
2019-01-30T16:50:50.103Z,18.10
2019-01-30T16:54:22.145Z,16.50
2019-01-30T16:57:48.816Z,17.07
2019-01-30T17:01:23.690Z,122.13
2019-01-30T17:04:50.116Z,36.53
2019-01-30T17:08:21.619Z,24.87
2019-01-30T17:11:51.194Z,24.10
2019-01-30T17:15:18.654Z,24.47
2019-01-30T17:18:52.243Z,28.13
2019-01-30T17:22:18.874Z,25.70
2019-01-30T17:25:53.634Z,24.17
2019-01-30T17:29:23.761Z,22.50
2019-01-30T17:32:55.927Z,19.63
2019-01-30T17:36:28.852Z,20.47
2019-01-30T17:40:06.897Z,26.43
2019-01-30T17:43:40.261Z,27.93
2019-01-30T17:47:09.716Z,24.83
2019-01-30T17:50:30.969Z,22.73
2019-01-30T17:54:02.464Z,24.67
2019-01-30T17:57:26.798Z,23.90
2019-01-30T18:01:10.874Z,20.87
2019-01-30T18:04:44.909Z,21.00
2019-01-30T18:08:12.619Z,18.13
2019-01-30T18:11:52.059Z,17.93
2019-01-30T18:15:31.906Z,17.00
2019-01-30T18:18:57.510Z,17.33
2019-01-30T18:22:11.405Z,16.80
2019-01-30T18:25:48.149Z,32.00
2019-01-30T18:29:02.334Z,21.23
2019-01-30T18:32:34.307Z,22.47
2019-01-30T18:36:07.872Z,22.93
2019-01-30T18:39:44.001Z,21.07
2019-01-30T18:43:01.370Z,23.63
2019-01-30T18:46:34.953Z,24.83
2019-01-30T18:49:55.943Z,23.37
2019-01-30T18:53:10.024Z,23.15
2019-01-30T18:56:45.850Z,20.30
2019-01-30T19:00:07.722Z,19.13
2019-01-30T19:03:36.742Z,22.05
2019-01-30T19:07:15.092Z,19.33
2019-01-30T19:10:46.792Z,18.37
2019-01-30T19:14:23.897Z,18.03
2019-01-30T19:17:56.781Z,15.93
2019-01-30T19:24:41.732Z,19.33
2019-01-30T19:28:21.998Z,19.10
2019-01-30T19:31:58.115Z,23.30
2019-01-30T19:34:27.697Z,20.23
2019-01-30T19:37:03.254Z,20.10
2019-01-30T19:39:26.673Z,20.00
2019-01-30T19:41:55.138Z,23.63
2019-01-30T19:44:25.016Z,26.70
2019-01-30T19:46:56.763Z,26.97
2019-01-30T19:49:27.739Z,23.77
2019-01-30T19:51:58.413Z,20.67
2019-01-30T19:54:26.898Z,20.10
2019-01-30T19:56:57.371Z,20.60
2019-01-30T19:59:26.938Z,18.60
2019-01-30T20:01:55.616Z,21.30
2019-01-30T20:04:24.290Z,24.03
2019-01-30T20:06:52.738Z,33.23
2019-01-30T20:09:22.630Z,39.77
2019-01-30T20:11:51.192Z,34.10
2019-01-30T20:14:19.668Z,33.80
2019-01-30T20:16:47.923Z,18.73
2019-01-30T20:19:16.691Z,12.87
2019-01-30T20:21:45.344Z,12.13
2019-01-30T20:24:13.969Z,13.60
2019-01-30T20:26:42.561Z,11.77
2019-01-30T20:29:11.233Z,11.33
2019-01-30T20:31:39.773Z,10.43
2019-01-30T20:34:10.448Z,11.60
2019-01-30T20:36:38.716Z,11.53
2019-01-30T20:39:07.917Z,10.10
2019-01-30T20:41:36.692Z,9.63
2019-01-30T20:44:05.373Z,9.47
2019-01-30T20:46:33.680Z,9.90
2019-01-30T20:49:02.070Z,9.60
2019-01-30T20:51:30.685Z,10.03
2019-01-30T20:54:00.628Z,9.83
2019-01-30T20:56:29.428Z,9.93
2019-01-30T20:58:57.823Z,9.97
2019-01-30T21:01:26.343Z,10.47
2019-01-30T21:03:54.831Z,17.40
2019-01-30T21:06:23.470Z,17.33
2019-01-30T21:08:52.156Z,19.20
2019-01-30T21:11:20.830Z,21.63
2019-01-30T21:13:49.473Z,28.87
2019-01-30T21:16:17.929Z,26.30
2019-01-30T21:18:46.475Z,15.47
2019-01-30T21:21:16.488Z,14.03
2019-01-30T21:23:44.963Z,15.27
2019-01-30T21:26:13.418Z,14.37
2019-01-30T21:28:41.997Z,14.13
2019-01-30T21:31:10.523Z,15.40
2019-01-30T21:33:40.090Z,15.93
2019-01-30T21:36:08.689Z,17.17
2019-01-30T21:38:37.176Z,16.07
2019-01-30T21:41:05.601Z,15.60
2019-01-30T21:43:34.269Z,14.20
2019-01-30T21:46:02.968Z,14.43
2019-01-30T21:48:31.485Z,16.40
2019-01-30T21:50:59.985Z,24.33
2019-01-30T21:53:28.445Z,15.50
2019-01-30T21:55:57.036Z,14.67
2019-01-30T21:58:25.425Z,12.93
2019-01-30T22:00:54.194Z,13.20
2019-01-30T22:03:22.795Z,12.80
2019-01-30T22:05:51.411Z,12.77
2019-01-30T22:08:19.815Z,13.70
2019-01-30T22:10:48.337Z,14.57
2019-01-30T22:13:16.898Z,17.30
2019-01-30T22:15:45.296Z,17.47
2019-01-30T22:18:14.050Z,16.07
2019-01-30T22:20:42.455Z,15.70
2019-01-30T22:23:11.151Z,15.37
2019-01-30T22:25:40.278Z,15.90
2019-01-30T22:28:08.848Z,15.97
2019-01-30T22:30:37.298Z,15.93
2019-01-30T22:33:06.111Z,16.07
2019-01-30T22:35:34.754Z,15.67
2019-01-30T22:38:11.999Z,15.40
2019-01-30T22:40:34.019Z,15.63
2019-01-30T22:43:02.362Z,16.30
2019-01-30T22:45:30.978Z,16.17
2019-01-30T22:47:59.423Z,16.60
2019-01-30T22:50:27.891Z,17.03
2019-01-30T22:52:56.374Z,15.97
2019-01-30T22:55:25.095Z,16.17
2019-01-30T22:57:53.713Z,15.60
2019-01-30T23:01:05.692Z,13.50
2019-01-30T23:04:11.650Z,15.10
2019-01-30T23:07:03.893Z,16.10
2019-01-30T23:10:08.107Z,15.57
2019-01-30T23:13:02.212Z,15.57
2019-01-30T23:15:37.935Z,15.33
2019-01-30T23:18:35.934Z,15.40
2019-01-30T23:21:16.012Z,14.73
2019-01-30T23:24:28.174Z,15.20
2019-01-30T23:27:09.523Z,14.20
2019-01-30T23:29:52.735Z,14.80
2019-01-30T23:32:28.485Z,18.10
2019-01-30T23:35:24.933Z,16.70
2019-01-30T23:38:07.300Z,14.23
2019-01-30T23:41:07.337Z,14.40
2019-01-30T23:44:08.446Z,16.13
2019-01-30T23:47:24.345Z,14.43
2019-01-30T23:50:37.530Z,14.40
2019-01-30T23:53:34.522Z,14.17
2019-01-30T23:56:28.070Z,14.37
2019-01-30T23:59:09.462Z,14.63
